createdAt,value
2018-06-03T00:00:51.427Z,90.30
2018-06-03T00:03:26.688Z,89.50
2018-06-03T00:06:01.913Z,89.00
2018-06-03T00:08:37.921Z,88.60
2018-06-03T00:11:13.088Z,88.60
2018-06-03T00:13:48.371Z,87.90
2018-06-03T00:16:23.684Z,86.40
2018-06-03T00:18:58.967Z,85.20
2018-06-03T00:21:44.047Z,84.30
2018-06-03T00:24:19.995Z,84.00
2018-06-03T00:26:55.936Z,84.10
2018-06-03T00:29:31.926Z,83.40
2018-06-03T00:32:07.852Z,82.30
2018-06-03T00:34:43.071Z,82.30
2018-06-03T00:37:18.319Z,83.10
2018-06-03T00:39:53.589Z,83.00
2018-06-03T00:42:29.539Z,84.20
2018-06-03T00:45:04.694Z,84.20
2018-06-03T00:47:39.778Z,84.20
2018-06-03T00:50:15.132Z,83.70
2018-06-03T00:52:51.099Z,86.20
2018-06-03T00:55:27.902Z,86.20
2018-06-03T00:58:03.713Z,85.40
2018-06-03T01:00:38.847Z,85.40
2018-06-03T01:03:14.086Z,85.90
2018-06-03T01:05:50.149Z,86.70
2018-06-03T01:08:25.403Z,86.70
2018-06-03T01:11:39.956Z,85.90
2018-06-03T01:14:16.736Z,84.80
2018-06-03T01:16:53.145Z,85.90
2018-06-03T01:19:29.524Z,85.60
2018-06-03T01:22:06.087Z,85.80
2018-06-03T01:24:42.930Z,86.50
2018-06-03T01:27:19.239Z,87.30
2018-06-03T01:29:55.759Z,90.00
2018-06-03T01:32:32.228Z,89.40
2018-06-03T01:35:08.690Z,88.80
2018-06-03T01:37:45.139Z,88.30
2018-06-03T01:40:21.635Z,89.70
2018-06-03T01:42:58.107Z,91.00
2018-06-03T01:45:34.565Z,91.70
2018-06-03T01:48:10.862Z,91.70
2018-06-03T01:50:47.311Z,93.00
2018-06-03T01:53:23.762Z,94.00
2018-06-03T01:56:00.248Z,93.30
2018-06-03T01:58:36.533Z,93.40
2018-06-03T02:01:13.531Z,93.00
2018-06-03T02:03:50.291Z,93.80
2018-06-03T02:06:27.742Z,93.20
2018-06-03T02:09:04.545Z,94.20
2018-06-03T02:11:41.553Z,93.60
2018-06-03T02:14:17.935Z,95.60
2018-06-03T02:16:55.352Z,94.40
2018-06-03T02:19:31.930Z,94.30
2018-06-03T02:22:08.236Z,93.80
2018-06-03T02:24:44.556Z,93.40
2018-06-03T02:27:21.497Z,93.00
2018-06-03T02:29:58.357Z,93.10
2018-06-03T02:32:34.655Z,93.60
2018-06-03T02:35:11.108Z,94.30
2018-06-03T02:37:47.642Z,94.90
2018-06-03T02:40:24.111Z,94.80
2018-06-03T02:43:00.571Z,94.30
2018-06-03T02:45:37.170Z,94.10
2018-06-03T02:48:13.648Z,94.50
2018-06-03T02:50:50.551Z,94.50
2018-06-03T02:53:26.901Z,94.90
2018-06-03T02:56:03.424Z,94.40
2018-06-03T02:58:39.940Z,94.30
2018-06-03T03:01:16.437Z,94.20
2018-06-03T03:03:52.704Z,94.20
2018-06-03T03:06:29.008Z,95.50
2018-06-03T03:09:07.008Z,95.80
2018-06-03T03:11:43.410Z,95.20
2018-06-03T03:14:19.954Z,95.20
2018-06-03T03:16:56.359Z,94.90
2018-06-03T03:19:32.844Z,94.90
2018-06-03T03:22:09.627Z,94.60
2018-06-03T03:24:46.079Z,94.60
2018-06-03T03:27:22.531Z,95.00
2018-06-03T03:29:58.986Z,94.60
2018-06-03T03:32:35.517Z,94.70
2018-06-03T03:35:11.879Z,95.10
2018-06-03T03:37:48.222Z,95.30
2018-06-03T03:40:24.668Z,95.80
2018-06-03T03:43:01.194Z,96.00
2018-06-03T03:45:37.717Z,96.10
2018-06-03T03:48:14.254Z,96.90
2018-06-03T03:50:50.975Z,96.60
2018-06-03T03:53:27.542Z,96.50
2018-06-03T03:56:05.003Z,96.70
2018-06-03T03:58:41.274Z,96.20
2018-06-03T04:01:17.726Z,96.50
2018-06-03T04:03:54.215Z,96.50
2018-06-03T04:06:30.693Z,96.50
2018-06-03T04:09:07.733Z,96.20
2018-06-03T04:11:43.987Z,96.10
2018-06-03T04:14:20.475Z,96.40
2018-06-03T04:16:56.956Z,96.00
2018-06-03T04:19:33.323Z,96.00
2018-06-03T04:22:09.767Z,96.40
2018-06-03T04:24:46.257Z,96.10
2018-06-03T04:27:22.549Z,96.50
2018-06-03T04:29:58.835Z,96.60
2018-06-03T04:32:35.352Z,96.80
2018-06-03T04:35:11.824Z,96.40
2018-06-03T04:37:48.292Z,96.80
2018-06-03T04:40:24.779Z,96.90
2018-06-03T04:45:37.175Z,98.20
2018-06-03T04:48:13.564Z,98.10
2018-06-03T04:50:50.043Z,98.10
2018-06-03T04:53:26.623Z,96.70
2018-06-03T04:56:03.151Z,97.40
2018-06-03T04:58:39.647Z,96.70
2018-06-03T05:01:15.935Z,96.00
2018-06-03T05:03:52.500Z,95.40
2018-06-03T05:06:29.014Z,95.40
2018-06-03T05:09:07.310Z,95.20
2018-06-03T05:11:43.542Z,94.40
2018-06-03T05:14:19.974Z,93.60
2018-06-03T05:16:56.415Z,93.40
2018-06-03T05:19:32.882Z,92.50
2018-06-03T05:22:09.517Z,91.20
2018-06-03T05:24:46.655Z,88.00
2018-06-03T05:27:23.067Z,84.70
2018-06-03T05:30:00.283Z,79.40
2018-06-03T05:32:36.663Z,77.80
2018-06-03T05:35:13.130Z,75.50
2018-06-03T05:37:49.616Z,73.80
2018-06-03T05:40:26.059Z,71.80
2018-06-03T05:43:03.304Z,68.90
2018-06-03T05:45:40.343Z,68.00
2018-06-03T05:48:16.742Z,65.80
2018-06-03T05:50:53.211Z,62.90
2018-06-03T05:53:29.668Z,61.40
2018-06-03T05:56:06.113Z,59.80
2018-06-03T05:58:42.476Z,59.10
2018-06-03T06:01:19.398Z,58.30
2018-06-03T06:03:55.820Z,58.50
2018-06-03T06:06:32.285Z,57.80
2018-06-03T06:09:08.826Z,57.70
2018-06-03T06:11:45.315Z,56.40
2018-06-03T06:14:21.845Z,55.80
2018-06-03T06:16:58.722Z,56.10
2018-06-03T06:19:35.027Z,55.90
2018-06-03T06:22:11.530Z,55.30
2018-06-03T06:24:48.109Z,55.10
2018-06-03T06:27:24.532Z,54.60
2018-06-03T06:30:00.881Z,53.70
2018-06-03T06:32:40.603Z,54.20
2018-06-03T06:35:16.897Z,52.70
2018-06-03T06:37:53.586Z,53.20
2018-06-03T06:40:30.615Z,52.20
2018-06-03T06:43:07.089Z,52.50
2018-06-03T06:45:43.448Z,52.00
2018-06-03T06:48:20.104Z,50.80
2018-06-03T06:50:57.353Z,51.40
2018-06-03T06:53:33.810Z,49.70
2018-06-03T06:56:10.176Z,48.10
2018-06-03T06:58:46.608Z,46.50
2018-06-03T07:01:23.856Z,45.90
2018-06-03T07:04:00.416Z,45.70
2018-06-03T07:06:37.373Z,47.10
2018-06-03T07:09:13.858Z,46.70
2018-06-03T07:11:51.503Z,46.60
2018-06-03T07:14:28.445Z,45.40
2018-06-03T07:17:04.806Z,43.90
2018-06-03T07:19:41.287Z,44.40
2018-06-03T07:22:17.699Z,44.70
2018-06-03T07:24:54.685Z,44.30
2018-06-03T07:27:30.998Z,43.30
2018-06-03T07:30:07.342Z,43.10
2018-06-03T07:32:43.728Z,42.80
2018-06-03T07:35:20.184Z,43.80
2018-06-03T07:37:56.645Z,43.40
2018-06-03T07:40:33.085Z,43.10
2018-06-03T07:43:11.229Z,42.30
2018-06-03T07:45:48.492Z,41.90
2018-06-03T07:51:03.391Z,41.80
2018-06-03T07:53:39.855Z,41.70
2018-06-03T07:56:16.292Z,41.40
2018-06-03T07:58:52.747Z,41.10
2018-06-03T08:01:29.354Z,40.00
2018-06-03T08:04:06.431Z,39.30
2018-06-03T08:06:43.929Z,40.00
2018-06-03T08:09:20.204Z,40.00
2018-06-03T08:11:56.647Z,40.40
2018-06-03T08:14:32.995Z,39.60
2018-06-03T08:17:09.370Z,39.20
2018-06-03T08:19:45.867Z,38.80
2018-06-03T08:22:22.208Z,38.90
2018-06-03T08:25:01.128Z,39.20
2018-06-03T08:27:38.367Z,39.10
2018-06-03T08:30:14.828Z,37.90
2018-06-03T08:32:51.558Z,37.30
2018-06-03T08:35:27.943Z,36.40
2018-06-03T08:38:04.403Z,36.10
2018-06-03T08:40:41.668Z,36.10
2018-06-03T08:43:18.611Z,35.70
2018-06-03T08:45:56.806Z,35.80
2018-06-03T08:48:33.090Z,36.60
2018-06-03T08:51:09.410Z,36.00
2018-06-03T08:53:45.879Z,34.90
2018-06-03T08:56:22.398Z,36.70
2018-06-03T08:58:58.896Z,36.40
2018-06-03T09:01:35.368Z,34.00
2018-06-03T09:04:11.841Z,31.90
2018-06-03T09:06:49.382Z,33.60
2018-06-03T09:09:25.619Z,33.30
2018-06-03T09:12:03.329Z,32.50
2018-06-03T09:14:39.730Z,34.90
2018-06-03T09:17:16.571Z,37.20
2018-06-03T09:19:53.755Z,38.10
2018-06-03T09:22:30.252Z,38.40
2018-06-03T09:25:06.849Z,35.50
2018-06-03T09:27:43.963Z,35.30
2018-06-03T09:30:20.685Z,33.90
2018-06-03T09:32:57.193Z,33.30
2018-06-03T09:35:33.647Z,33.70
2018-06-03T09:38:10.108Z,34.60
2018-06-03T09:40:46.570Z,35.80
2018-06-03T09:43:23.032Z,34.10
2018-06-03T09:45:59.500Z,34.90
2018-06-03T09:48:36.878Z,35.20
2018-06-03T09:51:13.433Z,34.10
2018-06-03T09:53:49.842Z,35.20
2018-06-03T09:56:26.264Z,36.80
2018-06-03T09:59:02.708Z,36.90
2018-06-03T10:01:39.199Z,37.10
2018-06-03T10:04:16.568Z,37.80
2018-06-03T10:06:53.125Z,38.20
2018-06-03T10:09:30.234Z,38.00
2018-06-03T10:12:08.712Z,38.10
2018-06-03T10:14:45.835Z,37.70
2018-06-03T10:17:22.228Z,37.60
2018-06-03T10:19:59.015Z,36.20
2018-06-03T10:22:35.515Z,35.80
2018-06-03T10:25:13.171Z,36.60
2018-06-03T10:27:50.051Z,35.70
2018-06-03T10:30:26.343Z,35.80
2018-06-03T10:33:03.379Z,37.50
2018-06-03T10:35:39.901Z,38.20
2018-06-03T10:38:16.431Z,36.30
2018-06-03T10:40:52.933Z,35.50
2018-06-03T10:46:06.211Z,35.00
2018-06-03T10:48:44.497Z,33.60
2018-06-03T10:51:22.263Z,33.60
2018-06-03T10:53:58.747Z,33.30
2018-06-03T10:56:35.101Z,33.40
2018-06-03T10:59:12.511Z,35.50
2018-06-03T11:01:49.645Z,36.30
2018-06-03T11:04:26.131Z,37.60
2018-06-03T11:07:02.990Z,37.20
2018-06-03T11:09:39.472Z,36.50
2018-06-03T11:12:16.439Z,34.30
2018-06-03T11:14:52.895Z,34.20
2018-06-03T11:17:29.453Z,33.20
2018-06-03T11:20:06.315Z,32.80
2018-06-03T11:22:42.827Z,32.70
2018-06-03T11:25:19.339Z,33.30
2018-06-03T11:27:55.792Z,32.90
2018-06-03T11:30:32.331Z,33.60
2018-06-03T11:33:08.784Z,32.30
2018-06-03T11:35:45.274Z,33.20
2018-06-03T11:38:21.722Z,33.20
2018-06-03T11:40:58.243Z,33.30
2018-06-03T11:43:36.720Z,33.00
2018-06-03T11:46:13.051Z,33.10
2018-06-03T11:48:49.621Z,33.10
2018-06-03T11:51:26.053Z,33.20
2018-06-03T11:54:02.398Z,32.30
2018-06-03T11:56:55.704Z,33.20
2018-06-03T11:59:42.413Z,34.30
2018-06-03T12:02:20.402Z,35.00
2018-06-03T12:04:57.443Z,35.60
2018-06-03T12:07:34.232Z,36.20
2018-06-03T12:10:10.684Z,36.40
2018-06-03T12:12:47.103Z,35.80
2018-06-03T12:15:23.655Z,36.90
2018-06-03T12:17:59.981Z,34.90
2018-06-03T12:20:36.402Z,35.50
2018-06-03T12:23:12.906Z,35.10
2018-06-03T12:25:49.455Z,34.70
2018-06-03T12:28:25.832Z,33.40
2018-06-03T12:33:38.110Z,33.00
2018-06-03T12:36:14.606Z,34.10
2018-06-03T12:38:51.087Z,33.50
2018-06-03T12:41:27.569Z,34.00
2018-06-03T12:44:03.924Z,35.20
2018-06-03T12:46:41.187Z,34.00
2018-06-03T12:49:18.324Z,34.10
2018-06-03T12:51:54.817Z,33.00
2018-06-03T12:54:31.422Z,33.90
2018-06-03T12:57:07.807Z,32.70
2018-06-03T12:59:44.303Z,32.40
2018-06-03T13:02:21.303Z,32.60
2018-06-03T13:04:57.859Z,34.60
2018-06-03T13:07:36.597Z,33.60
2018-06-03T13:10:12.999Z,34.70
2018-06-03T13:12:49.333Z,34.70
2018-06-03T13:15:25.861Z,34.40
2018-06-03T13:18:02.664Z,34.70
2018-06-03T13:20:39.106Z,35.00
2018-06-03T13:23:15.502Z,33.80
2018-06-03T13:25:53.816Z,35.90
2018-06-03T13:28:30.394Z,35.10
2018-06-03T13:31:06.927Z,34.90
2018-06-03T13:33:43.502Z,34.60
2018-06-03T13:36:20.022Z,34.20
2018-06-03T13:38:56.555Z,33.50
2018-06-03T13:41:33.062Z,33.40
2018-06-03T13:44:09.520Z,33.20
2018-06-03T13:46:46.081Z,34.70
2018-06-03T13:49:22.468Z,34.20
2018-06-03T13:51:58.964Z,34.10
2018-06-03T13:54:35.418Z,34.60
2018-06-03T13:57:11.888Z,34.30
2018-06-03T13:59:48.922Z,35.40
2018-06-03T14:02:25.222Z,35.20
2018-06-03T14:07:37.595Z,34.90
2018-06-03T14:10:14.098Z,34.20
2018-06-03T14:12:56.621Z,35.50
2018-06-03T14:15:32.889Z,35.60
2018-06-03T14:18:09.338Z,35.30
2018-06-03T14:20:45.800Z,35.20
2018-06-03T14:23:22.235Z,35.30
2018-06-03T14:25:58.752Z,33.80
2018-06-03T14:28:35.100Z,33.20
2018-06-03T14:31:11.591Z,34.50
2018-06-03T14:33:48.017Z,35.50
2018-06-03T14:36:24.495Z,35.20
2018-06-03T14:39:01.032Z,35.90
2018-06-03T14:41:37.523Z,35.90
2018-06-03T14:44:13.982Z,36.10
2018-06-03T14:46:50.612Z,36.30
2018-06-03T14:49:27.551Z,35.70
2018-06-03T14:52:03.947Z,36.50
2018-06-03T14:54:40.405Z,35.00
2018-06-03T14:57:16.854Z,35.40
2018-06-03T14:59:53.319Z,37.30
2018-06-03T15:02:32.020Z,36.60
2018-06-03T15:05:09.499Z,36.10
2018-06-03T15:07:46.944Z,35.70
2018-06-03T15:12:59.539Z,35.70
2018-06-03T15:15:36.293Z,36.50
2018-06-03T15:18:13.250Z,36.40
2018-06-03T15:20:50.793Z,36.20
2018-06-03T15:23:27.102Z,36.60
2018-06-03T15:26:03.567Z,37.20
2018-06-03T15:28:40.810Z,36.50
2018-06-03T15:31:17.275Z,36.20
2018-06-03T15:33:53.618Z,37.10
2018-06-03T15:36:30.257Z,35.50
2018-06-03T15:39:09.249Z,35.60
2018-06-03T15:41:45.638Z,35.20
2018-06-03T15:44:22.020Z,34.40
2018-06-03T15:46:58.430Z,34.70
2018-06-03T15:49:34.922Z,34.10
2018-06-03T15:52:11.446Z,33.90
2018-06-03T15:54:48.115Z,34.20
2018-06-03T15:57:24.604Z,33.90
2018-06-03T16:00:01.071Z,33.50
2018-06-03T16:02:37.654Z,34.10
2018-06-03T16:05:14.060Z,34.00
2018-06-03T16:07:50.726Z,34.00
2018-06-03T16:10:27.116Z,34.10
2018-06-03T16:13:03.446Z,34.30
2018-06-03T16:15:39.885Z,34.40
2018-06-03T16:18:16.548Z,34.70
2018-06-03T16:20:52.983Z,34.90
2018-06-03T16:23:29.372Z,33.70
2018-06-03T16:26:05.689Z,34.20
2018-06-03T16:28:42.140Z,35.10
2018-06-03T16:31:19.816Z,34.40
2018-06-03T16:33:56.765Z,34.60
2018-06-03T16:36:32.999Z,34.40
2018-06-03T16:39:09.537Z,35.80
2018-06-03T16:41:46.159Z,35.60
2018-06-03T16:44:22.926Z,34.70
2018-06-03T16:46:59.368Z,34.70
2018-06-03T16:49:35.944Z,35.60
2018-06-03T16:52:12.684Z,34.80
2018-06-03T16:54:49.412Z,34.50
2018-06-03T16:57:25.866Z,34.60
2018-06-03T17:00:06.231Z,35.40
2018-06-03T17:02:42.733Z,35.20
2018-06-03T17:05:19.168Z,35.20
2018-06-03T17:07:55.752Z,35.60
2018-06-03T17:10:32.714Z,35.80
2018-06-03T17:13:09.115Z,36.10
2018-06-03T17:15:45.751Z,36.40
2018-06-03T17:18:22.963Z,36.30
2018-06-03T17:21:07.401Z,36.00
2018-06-03T17:23:43.908Z,36.30
2018-06-03T17:26:21.185Z,36.60
2018-06-03T17:28:57.473Z,36.40
2018-06-03T17:31:33.755Z,35.70
2018-06-03T17:34:10.128Z,35.50
2018-06-03T17:36:46.815Z,36.80
2018-06-03T17:39:23.221Z,36.30
2018-06-03T17:41:59.811Z,36.10
2018-06-03T17:44:36.327Z,35.40
2018-06-03T17:47:13.317Z,36.10
2018-06-03T17:49:49.964Z,36.60
2018-06-03T17:52:26.259Z,36.10
2018-06-03T17:55:02.747Z,36.50
2018-06-03T17:57:41.238Z,36.40
2018-06-03T18:00:18.742Z,36.90
2018-06-03T18:02:56.612Z,37.10
2018-06-03T18:05:33.020Z,37.40
2018-06-03T18:08:10.495Z,37.50
2018-06-03T18:10:47.030Z,37.60
2018-06-03T18:13:24.493Z,37.50
2018-06-03T18:16:00.995Z,38.00
2018-06-03T18:18:37.504Z,37.90
2018-06-03T18:21:14.081Z,38.60
2018-06-03T18:23:50.464Z,39.10
2018-06-03T18:26:26.847Z,39.60
2018-06-03T18:29:04.169Z,40.40
2018-06-03T18:31:40.644Z,40.40
2018-06-03T18:34:17.665Z,40.90
2018-06-03T18:36:53.996Z,40.50
2018-06-03T18:39:30.366Z,42.00
2018-06-03T18:42:06.731Z,41.80
2018-06-03T18:44:43.787Z,41.90
2018-06-03T18:47:23.070Z,41.80
2018-06-03T18:50:00.113Z,42.30
2018-06-03T18:52:36.476Z,42.50
2018-06-03T18:55:13.151Z,42.20
2018-06-03T18:57:49.772Z,42.80
2018-06-03T19:00:26.530Z,42.90
2018-06-03T19:03:03.073Z,42.90
2018-06-03T19:05:39.454Z,43.20
2018-06-03T19:08:16.227Z,43.10
2018-06-03T19:10:53.797Z,43.20
2018-06-03T19:13:30.221Z,43.50
2018-06-03T19:16:06.716Z,43.20
2018-06-03T19:18:43.862Z,43.80
2018-06-03T19:21:21.222Z,44.20
2018-06-03T19:24:00.536Z,44.30
2018-06-03T19:26:36.988Z,45.00
2018-06-03T19:29:13.974Z,45.70
2018-06-03T19:31:50.385Z,46.00
2018-06-03T19:34:27.900Z,45.60
2018-06-03T19:37:05.085Z,46.50
2018-06-03T19:39:43.519Z,46.80
2018-06-03T19:42:19.922Z,46.90
2018-06-03T19:44:56.524Z,47.50
2018-06-03T19:47:33.461Z,48.20
2018-06-03T19:50:11.296Z,47.70
2018-06-03T19:52:47.758Z,48.20
2018-06-03T19:55:24.568Z,48.60
2018-06-03T19:58:01.111Z,48.60
2018-06-03T20:00:37.561Z,49.40
2018-06-03T20:03:14.138Z,49.70
2018-06-03T20:05:50.633Z,50.20
2018-06-03T20:08:27.453Z,50.40
2018-06-03T20:11:04.057Z,50.90
2018-06-03T20:13:40.575Z,51.20
2018-06-03T20:16:17.223Z,51.70
2018-06-03T20:18:54.015Z,52.00
2018-06-03T20:21:31.441Z,52.20
2018-06-03T20:24:10.264Z,52.40
2018-06-03T20:26:46.801Z,52.40
2018-06-03T20:29:23.533Z,52.80
2018-06-03T20:32:00.180Z,53.00
2018-06-03T20:34:37.902Z,53.20
2018-06-03T20:37:14.912Z,53.20
2018-06-03T20:39:51.495Z,53.70
2018-06-03T20:42:28.262Z,54.40
2018-06-03T20:45:05.163Z,54.60
2018-06-03T20:47:42.328Z,54.70
2018-06-03T20:50:19.099Z,55.40
2018-06-03T20:52:55.632Z,55.50
2018-06-03T20:55:31.937Z,55.80
2018-06-03T20:58:09.017Z,56.40
2018-06-03T21:00:46.152Z,56.40
2018-06-03T21:03:22.718Z,56.50
2018-06-03T21:05:59.037Z,56.80
2018-06-03T21:08:36.084Z,57.30
2018-06-03T21:11:12.424Z,57.50
2018-06-03T21:13:48.872Z,57.90
2018-06-03T21:16:25.423Z,58.20
2018-06-03T21:19:03.011Z,58.00
2018-06-03T21:21:39.776Z,58.40
2018-06-03T21:24:18.630Z,58.40
2018-06-03T21:26:55.695Z,58.80
2018-06-03T21:29:33.392Z,59.20
2018-06-03T21:32:09.867Z,59.10
2018-06-03T21:34:47.051Z,59.30
2018-06-03T21:37:23.443Z,59.70
2018-06-03T21:39:59.897Z,59.80
2018-06-03T21:42:36.375Z,60.10
2018-06-03T21:45:13.123Z,60.10
2018-06-03T21:47:49.543Z,60.30
2018-06-03T21:50:25.804Z,60.60
2018-06-03T21:53:02.766Z,60.80
2018-06-03T21:55:40.192Z,60.70
2018-06-03T21:58:16.494Z,61.10
2018-06-03T22:00:52.919Z,61.40
2018-06-03T22:03:29.386Z,61.70
2018-06-03T22:06:06.575Z,61.90
2018-06-03T22:08:43.388Z,61.90
2018-06-03T22:11:19.872Z,62.10
2018-06-03T22:13:56.368Z,62.80
2018-06-03T22:16:32.980Z,62.80
2018-06-03T22:19:10.049Z,63.00
2018-06-03T22:21:46.625Z,63.30
2018-06-03T22:24:23.616Z,63.50
2018-06-03T22:26:59.941Z,63.60
2018-06-03T22:29:37.680Z,64.00
2018-06-03T22:32:14.451Z,64.00
2018-06-03T22:34:50.892Z,64.00
2018-06-03T22:37:27.299Z,64.20
2018-06-03T22:40:04.359Z,64.50
2018-06-03T22:42:40.874Z,64.60
2018-06-03T22:45:17.308Z,64.70
2018-06-03T22:47:53.798Z,64.70
2018-06-03T22:50:30.694Z,64.70
2018-06-03T22:53:08.430Z,64.90
2018-06-03T22:55:45.035Z,64.90
2018-06-03T22:58:21.519Z,65.20
2018-06-03T23:00:57.935Z,65.20
2018-06-03T23:03:35.195Z,65.00
2018-06-03T23:06:11.690Z,65.30
2018-06-03T23:08:48.130Z,65.20
2018-06-03T23:11:24.539Z,65.40
2018-06-03T23:14:01.517Z,65.80
2018-06-03T23:16:38.129Z,65.60
2018-06-03T23:19:14.484Z,65.80
2018-06-03T23:21:50.988Z,65.80
2018-06-03T23:24:28.357Z,66.20
2018-06-03T23:27:05.176Z,66.40
2018-06-03T23:29:45.715Z,66.70
2018-06-03T23:32:21.891Z,67.20
2018-06-03T23:34:58.429Z,67.20
2018-06-03T23:37:34.942Z,67.50
2018-06-03T23:40:11.426Z,67.60
2018-06-03T23:42:47.913Z,68.00
2018-06-03T23:45:24.336Z,68.30
2018-06-03T23:47:59.877Z,68.40
2018-06-03T23:50:37.380Z,68.20
2018-06-03T23:53:14.673Z,68.50
2018-06-03T23:55:50.967Z,68.30
2018-06-03T23:58:27.427Z,68.40
